Time;durP1;ratioP1;P1;durP2;ratioP2;P2;SDS_P1;SDS_P2;PMS_P1;PMS_P2;Temp;Humidity;BMP_temperature;BMP_pressure;BME280_temperature;BME280_humidity;BME280_pressure;Samples;Min_cycle;Max_cycle;Signal;HPM_P1;HPM_P2
2023/08/30 00:00:45;;;;;;;0.10;0.10;;;;;;;;;;5041806;28;20282;-71
2023/08/30 00:03:12;;;;;;;0.10;0.10;;;;;;;;;;5066258;28;20207;-72
2023/08/30 00:05:39;;;;;;;0.10;0.10;;;;;;;;;;5041394;28;20246;-72
2023/08/30 00:08:06;;;;;;;0.10;0.10;;;;;;;;;;5066526;28;20227;-72
2023/08/30 00:10:32;;;;;;;0.00;0.00;;;;;;;;;;5039815;28;20314;-71
2023/08/30 00:12:58;;;;;;;0.08;0.08;;;;;;;;;;5068444;28;20244;-72
2023/08/30 00:15:25;;;;;;;0.10;0.10;;;;;;;;;;5037621;28;20207;-72
2023/08/30 00:17:53;;;;;;;0.10;0.10;;;;;;;;;;5070312;28;20226;-72
2023/08/30 00:20:19;;;;;;;0.10;0.10;;;;;;;;;;5035981;28;20205;-72
2023/08/30 00:22:45;;;;;;;0.00;0.00;;;;;;;;;;5071936;28;20271;-72
2023/08/30 00:25:12;;;;;;;0.10;0.10;;;;;;;;;;5033984;28;20466;-72
2023/08/30 00:27:38;;;;;;;0.10;0.10;;;;;;;;;;5073606;28;20230;-72
2023/08/30 00:30:05;;;;;;;0.10;0.10;;;;;;;;;;5043094;28;20295;-72
2023/08/30 00:32:32;;;;;;;0.10;0.10;;;;;;;;;;5051410;28;20585;-72
2023/08/30 00:34:59;;;;;;;0.10;0.10;;;;;;;;;;5063081;28;20208;-73
2023/08/30 00:37:26;;;;;;;0.10;0.10;;;;;;;;;;5068731;28;20334;-72
2023/08/30 00:39:52;;;;;;;0.10;0.10;;;;;;;;;;5066528;28;20275;-72
2023/08/30 00:42:19;;;;;;;0.10;0.10;;;;;;;;;;5071571;28;20243;-72
2023/08/30 00:44:46;;;;;;;0.10;0.10;;;;;;;;;;5066595;28;20208;-72
2023/08/30 00:47:12;;;;;;;0.10;0.10;;;;;;;;;;5071459;28;20266;-72
2023/08/30 00:49:39;;;;;;;0.00;0.00;;;;;;;;;;5066463;28;20420;-72
2023/08/30 00:52:10;;;;;;;0.10;0.10;;;;;;;;;;5071112;28;20258;-72
2023/08/30 00:54:36;;;;;;;0.10;0.10;;;;;;;;;;5066150;28;20488;-72
2023/08/30 00:57:03;;;;;;;0.10;0.10;;;;;;;;;;5070797;28;20420;-72
2023/08/30 00:59:30;;;;;;;0.10;0.10;;;;;;;;;;5066943;28;20417;-72
2023/08/30 01:01:56;;;;;;;0.10;0.10;;;;;;;;;;5069949;28;20239;-72
2023/08/30 01:04:23;;;;;;;0.10;0.10;;;;;;;;;;5067577;28;20211;-72
2023/08/30 01:06:49;;;;;;;0.10;0.10;;;;;;;;;;5068842;28;20269;-72
2023/08/30 01:09:18;;;;;;;0.10;0.10;;;;;;;;;;5068001;28;20251;-72
2023/08/30 01:11:46;;;;;;;0.10;0.10;;;;;;;;;;5068132;28;20470;-72
2023/08/30 01:14:14;;;;;;;0.10;0.10;;;;;;;;;;5068648;28;20228;-73
2023/08/30 01:16:41;;;;;;;0.10;0.10;;;;;;;;;;5067590;28;20243;-72
2023/08/30 01:19:19;;;;;;;0.10;0.10;;;;;;;;;;5068984;28;20271;-73
2023/08/30 01:21:49;;;;;;;0.08;0.08;;;;;;;;;;5068010;28;20314;-73
2023/08/30 01:24:24;;;;;;;0.10;0.10;;;;;;;;;;5068088;28;20228;-72
2023/08/30 01:26:58;;;;;;;0.10;0.10;;;;;;;;;;5068770;28;20246;-72
2023/08/30 01:29:25;;;;;;;0.10;0.10;;;;;;;;;;5066760;28;20289;-73
2023/08/30 01:31:52;;;;;;;0.10;0.10;;;;;;;;;;5068633;28;20575;-72
2023/08/30 01:34:18;;;;;;;0.10;0.10;;;;;;;;;;5067552;28;20215;-71
2023/08/30 01:36:45;;;;;;;0.10;0.10;;;;;;;;;;5067754;28;20246;-72
2023/08/30 01:39:14;;;;;;;0.00;0.00;;;;;;;;;;5068474;28;20227;-72
2023/08/30 01:41:40;;;;;;;0.10;0.10;;;;;;;;;;5066864;28;20242;-72
2023/08/30 01:44:08;;;;;;;0.10;0.10;;;;;;;;;;5068767;28;20211;-72
2023/08/30 01:46:35;;;;;;;0.10;0.10;;;;;;;;;;5066503;28;20253;-72
2023/08/30 01:49:02;;;;;;;0.10;0.10;;;;;;;;;;5068340;28;20282;-72
2023/08/30 01:51:29;;;;;;;0.10;0.10;;;;;;;;;;5065602;28;20238;-72
2023/08/30 01:53:56;;;;;;;0.10;0.10;;;;;;;;;;5070118;28;20417;-72
2023/08/30 01:56:23;;;;;;;0.10;0.10;;;;;;;;;;5064622;28;20497;-72
2023/08/30 01:58:49;;;;;;;0.10;0.10;;;;;;;;;;5070805;28;20545;-72
2023/08/30 02:01:17;;;;;;;0.10;0.10;;;;;;;;;;5063692;28;20298;-72
2023/08/30 02:03:44;;;;;;;0.10;0.10;;;;;;;;;;5071696;28;20279;-72
2023/08/30 02:06:14;;;;;;;0.10;0.10;;;;;;;;;;5062972;28;20239;-72
2023/08/30 02:08:42;;;;;;;0.10;0.10;;;;;;;;;;5071761;28;20303;-71
2023/08/30 02:11:13;;;;;;;0.10;0.10;;;;;;;;;;5062507;28;20242;-72
2023/08/30 02:13:40;;;;;;;0.10;0.10;;;;;;;;;;5071630;28;20192;-72
2023/08/30 02:16:08;;;;;;;0.10;0.10;;;;;;;;;;5062241;28;20261;-71
2023/08/30 02:18:36;;;;;;;0.10;0.10;;;;;;;;;;5072335;28;20242;-72
2023/08/30 02:21:03;;;;;;;0.10;0.10;;;;;;;;;;5061536;28;20246;-72
2023/08/30 02:23:29;;;;;;;0.10;0.10;;;;;;;;;;5072892;28;20257;-72
2023/08/30 02:25:56;;;;;;;0.10;0.10;;;;;;;;;;5060581;28;20251;-71
2023/08/30 02:28:22;;;;;;;0.00;0.00;;;;;;;;;;5073769;28;20204;-72
2023/08/30 02:30:49;;;;;;;0.10;0.10;;;;;;;;;;5059626;28;20296;-72
2023/08/30 02:33:15;;;;;;;0.10;0.10;;;;;;;;;;5074623;28;20194;-72
2023/08/30 02:35:43;;;;;;;0.10;0.10;;;;;;;;;;5058374;28;20306;-71
2023/08/30 02:38:09;;;;;;;0.10;0.10;;;;;;;;;;5075121;28;20274;-72
2023/08/30 02:40:35;;;;;;;0.10;0.10;;;;;;;;;;5057749;28;20266;-71
2023/08/30 02:43:02;;;;;;;0.10;0.10;;;;;;;;;;5076205;28;20227;-72
2023/08/30 02:45:28;;;;;;;0.10;0.10;;;;;;;;;;5056882;28;20248;-72
2023/08/30 02:47:56;;;;;;;0.10;0.10;;;;;;;;;;5077038;28;20193;-71
2023/08/30 02:50:22;;;;;;;0.10;0.10;;;;;;;;;;5055517;28;20256;-72
2023/08/30 02:52:50;;;;;;;0.10;0.10;;;;;;;;;;5077758;28;20224;-72
2023/08/30 02:55:16;;;;;;;0.10;0.10;;;;;;;;;;5054743;28;20254;-72
2023/08/30 02:57:43;;;;;;;0.10;0.10;;;;;;;;;;5078157;28;20259;-72
2023/08/30 03:00:10;;;;;;;0.10;0.10;;;;;;;;;;5053834;28;20488;-72
2023/08/30 03:02:36;;;;;;;0.00;0.00;;;;;;;;;;5078940;28;20295;-72
2023/08/30 03:05:04;;;;;;;0.10;0.10;;;;;;;;;;5063893;28;20246;-71
2023/08/30 03:07:30;;;;;;;0.10;0.10;;;;;;;;;;5069087;28;20246;-72
2023/08/30 03:09:58;;;;;;;0.10;0.10;;;;;;;;;;5063950;28;20582;-72
2023/08/30 03:12:24;;;;;;;0.10;0.10;;;;;;;;;;5068792;28;20269;-72
2023/08/30 03:14:51;;;;;;;0.10;0.10;;;;;;;;;;5063741;28;20244;-72
2023/08/30 03:17:17;;;;;;;0.10;0.10;;;;;;;;;;5069000;28;20253;-72
2023/08/30 03:19:44;;;;;;;0.10;0.10;;;;;;;;;;5063544;28;20205;-72
2023/08/30 03:22:11;;;;;;;0.10;0.10;;;;;;;;;;5068825;28;20308;-72
2023/08/30 03:24:37;;;;;;;0.10;0.10;;;;;;;;;;5063677;28;20296;-72
2023/08/30 03:27:05;;;;;;;0.10;0.10;;;;;;;;;;5068312;28;20304;-72
2023/08/30 03:29:31;;;;;;;0.10;0.10;;;;;;;;;;5063665;28;20301;-72
2023/08/30 03:31:58;;;;;;;0.10;0.10;;;;;;;;;;5067389;28;20243;-72
2023/08/30 03:34:24;;;;;;;0.10;0.10;;;;;;;;;;5064888;28;20212;-72
2023/08/30 03:36:54;;;;;;;0.00;0.00;;;;;;;;;;5066575;28;20310;-72
2023/08/30 03:39:20;;;;;;;0.10;0.10;;;;;;;;;;5065242;28;20211;-72
2023/08/30 03:41:46;;;;;;;0.10;0.10;;;;;;;;;;5065898;28;20497;-72
2023/08/30 03:44:14;;;;;;;0.17;0.17;;;;;;;;;;5065953;28;20240;-72
2023/08/30 03:46:40;;;;;;;0.10;0.10;;;;;;;;;;5065104;28;20299;-72
2023/08/30 03:49:07;;;;;;;0.10;0.10;;;;;;;;;;5066848;28;20453;-72
2023/08/30 03:51:33;;;;;;;0.10;0.10;;;;;;;;;;5064114;28;20501;-72
2023/08/30 03:54:00;;;;;;;0.10;0.10;;;;;;;;;;5067364;28;20213;-72
2023/08/30 03:56:27;;;;;;;0.10;0.10;;;;;;;;;;5063184;28;20486;-72
2023/08/30 03:58:53;;;;;;;0.10;0.10;;;;;;;;;;5068280;28;20278;-71
2023/08/30 04:01:21;;;;;;;0.10;0.10;;;;;;;;;;5062163;28;20370;-72
2023/08/30 04:03:47;;;;;;;0.10;0.10;;;;;;;;;;5068991;28;20266;-72
2023/08/30 04:06:13;;;;;;;0.10;0.10;;;;;;;;;;5061260;28;20257;-72
2023/08/30 04:08:41;;;;;;;0.10;0.10;;;;;;;;;;5070195;28;20207;-71
2023/08/30 04:11:07;;;;;;;0.10;0.10;;;;;;;;;;5060476;28;20451;-72
2023/08/30 04:13:35;;;;;;;0.10;0.10;;;;;;;;;;5073648;28;20446;-71
2023/08/30 04:16:01;;;;;;;0.10;0.10;;;;;;;;;;5063668;28;20242;-72
2023/08/30 04:18:29;;;;;;;0.10;0.10;;;;;;;;;;5075384;28;20235;-72
2023/08/30 04:20:55;;;;;;;0.10;0.10;;;;;;;;;;5062913;28;20342;-72
2023/08/30 04:23:22;;;;;;;0.10;0.10;;;;;;;;;;5076219;28;20565;-72
2023/08/30 04:25:48;;;;;;;0.10;0.10;;;;;;;;;;5061948;28;20241;-72
2023/08/30 04:28:14;;;;;;;0.10;0.10;;;;;;;;;;5077114;28;20210;-72
2023/08/30 04:30:41;;;;;;;0.10;0.10;;;;;;;;;;5060444;28;20251;-72
2023/08/30 04:33:07;;;;;;;0.10;0.10;;;;;;;;;;5077561;28;20268;-72
2023/08/30 04:35:35;;;;;;;0.20;0.20;;;;;;;;;;5059857;28;20487;-72
2023/08/30 04:38:02;;;;;;;0.10;0.10;;;;;;;;;;5078594;28;20220;-71
2023/08/30 04:40:30;;;;;;;0.10;0.10;;;;;;;;;;5059141;28;20244;-72
2023/08/30 04:42:56;;;;;;;0.10;0.10;;;;;;;;;;5079409;28;20480;-72
2023/08/30 04:45:23;;;;;;;0.10;0.10;;;;;;;;;;5058286;28;20238;-72
2023/08/30 04:47:49;;;;;;;0.10;0.10;;;;;;;;;;5080050;28;20202;-72
2023/08/30 04:50:16;;;;;;;0.10;0.10;;;;;;;;;;5057090;28;20534;-72
2023/08/30 04:52:44;;;;;;;0.00;0.00;;;;;;;;;;5080468;28;20270;-72
2023/08/30 04:55:10;;;;;;;0.10;0.10;;;;;;;;;;5056274;28;20243;-72
2023/08/30 04:57:37;;;;;;;0.10;0.10;;;;;;;;;;5081415;28;20219;-72
2023/08/30 05:00:04;;;;;;;0.10;0.10;;;;;;;;;;5066206;28;20247;-71
2023/08/30 05:02:31;;;;;;;0.10;0.10;;;;;;;;;;5071469;28;20289;-71
2023/08/30 05:04:57;;;;;;;0.10;0.10;;;;;;;;;;5066395;28;20249;-72
2023/08/30 05:07:23;;;;;;;0.10;0.10;;;;;;;;;;5071285;28;20251;-72
2023/08/30 05:09:51;;;;;;;0.10;0.10;;;;;;;;;;5065929;28;20238;-71
2023/08/30 05:12:18;;;;;;;0.10;0.10;;;;;;;;;;5071156;28;20454;-72
2023/08/30 05:14:44;;;;;;;0.10;0.10;;;;;;;;;;5066120;28;20510;-72
2023/08/30 05:17:10;;;;;;;0.10;0.10;;;;;;;;;;5071194;28;20445;-72
2023/08/30 05:19:37;;;;;;;0.10;0.10;;;;;;;;;;5066055;28;20407;-72
2023/08/30 05:22:03;;;;;;;0.10;0.10;;;;;;;;;;5070343;28;20326;-72
2023/08/30 05:24:30;;;;;;;0.10;0.10;;;;;;;;;;5065077;28;20258;-72
2023/08/30 05:26:57;;;;;;;0.10;0.10;;;;;;;;;;5069255;28;20242;-72
2023/08/30 05:29:24;;;;;;;0.10;0.10;;;;;;;;;;5067241;28;20242;-72
2023/08/30 05:31:50;;;;;;;0.10;0.10;;;;;;;;;;5068385;28;20265;-72
2023/08/30 05:34:16;;;;;;;0.10;0.10;;;;;;;;;;5067593;28;20235;-71
2023/08/30 05:36:43;;;;;;;0.10;0.10;;;;;;;;;;5067299;28;20239;-72
2023/08/30 05:39:09;;;;;;;0.10;0.10;;;;;;;;;;5068427;28;20242;-71
2023/08/30 05:41:36;;;;;;;0.10;0.10;;;;;;;;;;5066304;28;20260;-71
2023/08/30 05:44:04;;;;;;;0.10;0.10;;;;;;;;;;5069345;28;20239;-72
2023/08/30 05:46:30;;;;;;;0.10;0.10;;;;;;;;;;5065815;28;20243;-72
2023/08/30 05:48:57;;;;;;;0.10;0.10;;;;;;;;;;5070059;28;20207;-71
2023/08/30 05:51:23;;;;;;;0.10;0.10;;;;;;;;;;5064785;28;20310;-71
2023/08/30 05:53:49;;;;;;;0.10;0.10;;;;;;;;;;5070790;28;20250;-71
2023/08/30 05:56:17;;;;;;;0.10;0.10;;;;;;;;;;5063742;28;20251;-72
2023/08/30 05:58:43;;;;;;;0.10;0.10;;;;;;;;;;5071815;28;20381;-72
2023/08/30 06:01:11;;;;;;;0.10;0.10;;;;;;;;;;5062274;28;20266;-72
2023/08/30 06:03:37;;;;;;;0.10;0.10;;;;;;;;;;5072399;28;20207;-72
2023/08/30 06:06:03;;;;;;;0.10;0.10;;;;;;;;;;5061972;28;20265;-71
2023/08/30 06:08:30;;;;;;;0.10;0.10;;;;;;;;;;5073130;28;20211;-71
2023/08/30 06:10:56;;;;;;;0.10;0.10;;;;;;;;;;5060867;28;20470;-71
2023/08/30 06:13:23;;;;;;;0.10;0.10;;;;;;;;;;5073778;28;20205;-71
2023/08/30 06:15:51;;;;;;;0.10;0.10;;;;;;;;;;5059795;28;20246;-71
2023/08/30 06:18:18;;;;;;;0.10;0.10;;;;;;;;;;5074294;28;20358;-72
2023/08/30 06:20:45;;;;;;;0.10;0.10;;;;;;;;;;5059294;28;20254;-71
2023/08/30 06:23:12;;;;;;;0.10;0.10;;;;;;;;;;5075246;28;20257;-72
2023/08/30 06:25:38;;;;;;;0.10;0.10;;;;;;;;;;5058258;28;20305;-72
2023/08/30 06:28:05;;;;;;;0.10;0.10;;;;;;;;;;5076114;28;20451;-72
2023/08/30 06:30:32;;;;;;;0.10;0.10;;;;;;;;;;5057510;28;20268;-71
2023/08/30 06:32:58;;;;;;;0.10;0.10;;;;;;;;;;5076908;28;20551;-73
2023/08/30 06:35:26;;;;;;;0.10;0.10;;;;;;;;;;5056109;28;20238;-72
2023/08/30 06:37:53;;;;;;;0.10;0.10;;;;;;;;;;5077640;28;20271;-72
2023/08/30 06:40:19;;;;;;;0.10;0.10;;;;;;;;;;5055662;28;20214;-73
2023/08/30 06:42:46;;;;;;;0.10;0.10;;;;;;;;;;5077999;28;20192;-72
2023/08/30 06:45:12;;;;;;;0.10;0.10;;;;;;;;;;5054410;28;20271;-72
2023/08/30 06:47:38;;;;;;;0.10;0.10;;;;;;;;;;5079080;28;20232;-72
2023/08/30 06:50:05;;;;;;;0.10;0.10;;;;;;;;;;5064016;28;20213;-72
2023/08/30 06:52:33;;;;;;;0.10;0.10;;;;;;;;;;5069129;28;20252;-72
2023/08/30 06:54:59;;;;;;;0.10;0.10;;;;;;;;;;5063995;28;20251;-71
2023/08/30 06:57:26;;;;;;;0.10;0.10;;;;;;;;;;5069293;28;20239;-72
2023/08/30 06:59:52;;;;;;;0.10;0.10;;;;;;;;;;5064074;28;20236;-72
2023/08/30 07:02:18;;;;;;;0.10;0.10;;;;;;;;;;5069061;28;20249;-72
2023/08/30 07:04:44;;;;;;;0.10;0.10;;;;;;;;;;5064030;28;20429;-72
2023/08/30 07:07:12;;;;;;;0.10;0.10;;;;;;;;;;5068915;28;20493;-72
2023/08/30 07:09:41;;;;;;;0.10;0.10;;;;;;;;;;5063910;28;20234;-72
2023/08/30 07:12:08;;;;;;;0.10;0.10;;;;;;;;;;5068791;28;20254;-71
2023/08/30 07:14:34;;;;;;;0.10;0.10;;;;;;;;;;5063679;28;20299;-72
2023/08/30 07:17:01;;;;;;;0.10;0.10;;;;;;;;;;5067732;28;20567;-72
2023/08/30 07:19:27;;;;;;;0.10;0.10;;;;;;;;;;5064377;28;20208;-72
2023/08/30 07:21:53;;;;;;;0.10;0.10;;;;;;;;;;5067001;28;20529;-72
2023/08/30 07:24:19;;;;;;;0.10;0.10;;;;;;;;;;5065475;28;20467;-73
2023/08/30 07:26:47;;;;;;;0.10;0.10;;;;;;;;;;5066018;28;20603;-74
2023/08/30 07:29:13;;;;;;;0.10;0.10;;;;;;;;;;5066334;28;20240;-73
2023/08/30 07:31:41;;;;;;;0.10;0.10;;;;;;;;;;5065195;28;20498;-73
2023/08/30 07:34:07;;;;;;;0.10;0.10;;;;;;;;;;5066983;28;20398;-74
2023/08/30 07:36:34;;;;;;;0.10;0.10;;;;;;;;;;5064226;28;20271;-74
2023/08/30 07:39:00;;;;;;;0.10;0.10;;;;;;;;;;5067949;28;20238;-74
2023/08/30 07:41:28;;;;;;;0.10;0.10;;;;;;;;;;5063099;28;20264;-73
2023/08/30 07:43:56;;;;;;;0.10;0.10;;;;;;;;;;5068578;28;20399;-73
2023/08/30 07:46:22;;;;;;;0.10;0.10;;;;;;;;;;5062848;28;20257;-74
2023/08/30 07:48:48;;;;;;;0.10;0.10;;;;;;;;;;5072444;28;20209;-73
2023/08/30 07:51:15;;;;;;;0.00;0.00;;;;;;;;;;5065978;28;20597;-72
2023/08/30 07:53:41;;;;;;;0.10;0.10;;;;;;;;;;5074314;28;20551;-73
2023/08/30 07:56:08;;;;;;;0.00;0.00;;;;;;;;;;5064747;28;20278;-73
2023/08/30 07:58:34;;;;;;;0.10;0.10;;;;;;;;;;5074917;28;20203;-73
2023/08/30 08:01:03;;;;;;;0.10;0.10;;;;;;;;;;5063955;28;20579;-73
2023/08/30 08:03:29;;;;;;;0.10;0.10;;;;;;;;;;5075987;28;20205;-73
2023/08/30 08:05:55;;;;;;;0.10;0.10;;;;;;;;;;5063166;28;20263;-73
2023/08/30 08:08:22;;;;;;;0.10;0.10;;;;;;;;;;5076377;28;20247;-73
2023/08/30 08:10:48;;;;;;;0.10;0.10;;;;;;;;;;5061888;28;20236;-73
2023/08/30 08:13:14;;;;;;;0.10;0.10;;;;;;;;;;5077534;28;20208;-73
2023/08/30 08:15:41;;;;;;;0.10;0.10;;;;;;;;;;5061163;28;20563;-73
2023/08/30 08:18:08;;;;;;;0.10;0.10;;;;;;;;;;5078370;28;20442;-73
2023/08/30 08:20:36;;;;;;;0.03;0.03;;;;;;;;;;5060045;28;20258;-72
2023/08/30 08:23:02;;;;;;;0.10;0.10;;;;;;;;;;5078756;28;20227;-73
2023/08/30 08:25:29;;;;;;;0.10;0.10;;;;;;;;;;5059637;28;20241;-73
2023/08/30 08:27:55;;;;;;;0.10;0.10;;;;;;;;;;5079758;28;20242;-73
2023/08/30 08:30:22;;;;;;;0.10;0.10;;;;;;;;;;5058202;28;20229;-72
2023/08/30 08:32:48;;;;;;;0.10;0.10;;;;;;;;;;5080113;28;20250;-73
2023/08/30 08:35:16;;;;;;;0.03;0.03;;;;;;;;;;5057406;28;20205;-73
2023/08/30 08:37:43;;;;;;;0.10;0.10;;;;;;;;;;5081310;28;20262;-73
2023/08/30 08:40:10;;;;;;;0.10;0.10;;;;;;;;;;5058108;28;20243;-74
2023/08/30 08:42:36;;;;;;;0.00;0.00;;;;;;;;;;5081823;28;20434;-74
2023/08/30 08:45:04;;;;;;;0.10;0.10;;;;;;;;;;5066559;28;20282;-74
2023/08/30 08:47:31;;;;;;;0.10;0.10;;;;;;;;;;5071555;28;20232;-74
2023/08/30 08:49:57;;;;;;;0.08;0.08;;;;;;;;;;5066676;28;20448;-74
2023/08/30 08:52:25;;;;;;;0.00;0.00;;;;;;;;;;5071619;28;20305;-73
2023/08/30 08:54:52;;;;;;;0.00;0.00;;;;;;;;;;5066403;28;20221;-74
2023/08/30 08:57:19;;;;;;;0.08;0.08;;;;;;;;;;5071535;28;20499;-74
2023/08/30 08:59:46;;;;;;;0.00;0.00;;;;;;;;;;5066124;28;20237;-74
2023/08/30 09:02:14;;;;;;;0.10;0.10;;;;;;;;;;5071293;28;20233;-73
2023/08/30 09:04:41;;;;;;;0.00;0.00;;;;;;;;;;5066139;28;20196;-73
2023/08/30 09:07:07;;;;;;;0.10;0.10;;;;;;;;;;5071248;28;20309;-74
2023/08/30 09:09:35;;;;;;;0.10;0.10;;;;;;;;;;5066262;28;20210;-73
2023/08/30 09:12:01;;;;;;;0.05;0.05;;;;;;;;;;5070376;28;20258;-73
2023/08/30 09:14:28;;;;;;;0.10;0.10;;;;;;;;;;5066854;28;20205;-74
2023/08/30 09:16:57;;;;;;;0.10;0.10;;;;;;;;;;5069352;28;20309;-73
2023/08/30 09:19:24;;;;;;;0.10;0.10;;;;;;;;;;5067141;28;20207;-73
2023/08/30 09:21:53;;;;;;;0.10;0.10;;;;;;;;;;5068639;28;20244;-73
2023/08/30 09:24:20;;;;;;;0.10;0.10;;;;;;;;;;5067562;28;20423;-73
2023/08/30 09:26:49;;;;;;;0.00;0.00;;;;;;;;;;5068409;28;20252;-74
2023/08/30 09:29:17;;;;;;;0.00;0.00;;;;;;;;;;5067814;28;20208;-74
2023/08/30 09:31:44;;;;;;;0.10;0.10;;;;;;;;;;5067711;28;20258;-74
2023/08/30 09:34:11;;;;;;;0.03;0.03;;;;;;;;;;5068380;28;20245;-74
2023/08/30 09:36:37;;;;;;;0.00;0.00;;;;;;;;;;5066792;28;20249;-74
2023/08/30 09:39:04;;;;;;;0.00;0.00;;;;;;;;;;5069171;28;20515;-74
2023/08/30 09:41:32;;;;;;;0.00;0.00;;;;;;;;;;5065944;28;20235;-74
2023/08/30 09:44:00;;;;;;;0.10;0.10;;;;;;;;;;5070082;28;20245;-74
2023/08/30 09:46:26;;;;;;;0.10;0.10;;;;;;;;;;5065263;28;20524;-74
2023/08/30 09:48:54;;;;;;;0.10;0.10;;;;;;;;;;5070405;28;20245;-73
2023/08/30 09:51:21;;;;;;;0.10;0.10;;;;;;;;;;5064075;28;20248;-74
2023/08/30 09:53:50;;;;;;;0.10;0.10;;;;;;;;;;5071189;28;20427;-73
2023/08/30 09:56:16;;;;;;;0.10;0.10;;;;;;;;;;5063787;28;20255;-73
2023/08/30 09:58:43;;;;;;;0.10;0.10;;;;;;;;;;5071896;28;20261;-72
2023/08/30 10:01:11;;;;;;;0.10;0.10;;;;;;;;;;5062972;28;20251;-73
2023/08/30 10:03:38;;;;;;;0.10;0.10;;;;;;;;;;5072536;28;20213;-73
2023/08/30 10:06:05;;;;;;;0.08;0.08;;;;;;;;;;5062063;28;20242;-74
2023/08/30 10:08:32;;;;;;;0.08;0.08;;;;;;;;;;5072871;28;20307;-73
2023/08/30 10:10:59;;;;;;;0.00;0.00;;;;;;;;;;5060435;28;20250;-73
2023/08/30 10:13:26;;;;;;;0.08;0.08;;;;;;;;;;5073677;28;20231;-73
2023/08/30 10:15:54;;;;;;;0.10;0.10;;;;;;;;;;5060353;28;20298;-73
2023/08/30 10:18:22;;;;;;;0.10;0.10;;;;;;;;;;5073975;28;20204;-73
2023/08/30 10:20:50;;;;;;;0.00;0.00;;;;;;;;;;5059788;28;20306;-74
2023/08/30 10:23:18;;;;;;;0.10;0.10;;;;;;;;;;5074307;28;20287;-74
2023/08/30 10:25:45;;;;;;;0.10;0.10;;;;;;;;;;5059348;28;20284;-73
2023/08/30 10:28:12;;;;;;;0.10;0.10;;;;;;;;;;5074931;28;20282;-73
2023/08/30 10:30:39;;;;;;;0.00;0.00;;;;;;;;;;5058088;28;20286;-73
2023/08/30 10:33:12;;;;;;;0.17;0.17;;;;;;;;;;5075946;28;20231;-74
2023/08/30 10:35:47;;;;;;;0.10;0.10;;;;;;;;;;5059006;28;20251;-74
2023/08/30 10:38:14;;;;;;;0.05;0.05;;;;;;;;;;5076561;28;20392;-74
2023/08/30 10:40:45;;;;;;;0.10;0.10;;;;;;;;;;5059223;28;20546;-75
2023/08/30 10:43:12;;;;;;;0.10;0.10;;;;;;;;;;5075606;28;20191;-74
2023/08/30 10:45:39;;;;;;;0.10;0.10;;;;;;;;;;5058342;28;20447;-73
2023/08/30 10:48:05;;;;;;;0.10;0.10;;;;;;;;;;5075842;28;20195;-73
2023/08/30 10:50:32;;;;;;;0.10;0.10;;;;;;;;;;5057064;28;20333;-73
2023/08/30 10:53:00;;;;;;;0.08;0.08;;;;;;;;;;5076359;28;20539;-73
2023/08/30 10:55:27;;;;;;;0.10;0.10;;;;;;;;;;5056157;28;20250;-73
2023/08/30 10:58:00;;;;;;;0.10;0.10;;;;;;;;;;5077163;28;20244;-73
2023/08/30 11:00:28;;;;;;;0.10;0.10;;;;;;;;;;5056311;28;20255;-73
2023/08/30 11:02:55;;;;;;;0.00;0.00;;;;;;;;;;5076918;28;20223;-74
2023/08/30 11:05:22;;;;;;;0.10;0.10;;;;;;;;;;5055240;28;20245;-73
2023/08/30 11:07:50;;;;;;;0.08;0.08;;;;;;;;;;5077697;28;20368;-73
2023/08/30 11:10:18;;;;;;;0.10;0.10;;;;;;;;;;5054754;28;20212;-73
2023/08/30 11:12:45;;;;;;;0.10;0.10;;;;;;;;;;5078094;28;20265;-74
2023/08/30 11:15:12;;;;;;;0.03;0.03;;;;;;;;;;5054157;28;20204;-73
2023/08/30 11:17:39;;;;;;;0.00;0.00;;;;;;;;;;5078438;28;20192;-73
2023/08/30 11:20:09;;;;;;;0.00;0.00;;;;;;;;;;5063821;28;20418;-74
2023/08/30 11:22:36;;;;;;;0.00;0.00;;;;;;;;;;5052188;28;20204;-73
2023/08/30 11:25:03;;;;;;;0.10;0.10;;;;;;;;;;5063856;28;20442;-73
2023/08/30 11:27:31;;;;;;;0.10;0.10;;;;;;;;;;5068965;28;20240;-73
2023/08/30 11:29:59;;;;;;;0.10;0.10;;;;;;;;;;5063752;28;20273;-73
2023/08/30 11:32:26;;;;;;;0.00;0.00;;;;;;;;;;5068764;28;20254;-73
2023/08/30 11:34:56;;;;;;;0.00;0.00;;;;;;;;;;5063702;28;20242;-73
2023/08/30 11:37:23;;;;;;;0.10;0.10;;;;;;;;;;5068854;28;20239;-74
2023/08/30 11:39:52;;;;;;;0.00;0.00;;;;;;;;;;5063684;28;20204;-72
2023/08/30 11:42:19;;;;;;;0.00;0.00;;;;;;;;;;5068687;28;20258;-73
2023/08/30 11:44:47;;;;;;;0.00;0.00;;;;;;;;;;5063591;28;20210;-72
2023/08/30 11:47:18;;;;;;;0.00;0.00;;;;;;;;;;5068550;28;20247;-72
2023/08/30 11:49:45;;;;;;;0.00;0.00;;;;;;;;;;5063583;28;20204;-72
2023/08/30 11:52:11;;;;;;;0.00;0.00;;;;;;;;;;5068538;28;20281;-72
2023/08/30 11:54:38;;;;;;;1.13;1.13;;;;;;;;;;5063340;28;20212;-72
2023/08/30 11:57:05;;;;;;;0.00;0.00;;;;;;;;;;5068039;28;20249;-72
2023/08/30 11:59:35;;;;;;;0.00;0.00;;;;;;;;;;5063754;28;20234;-73
2023/08/30 12:02:03;;;;;;;0.00;0.00;;;;;;;;;;5067042;28;20239;-72
2023/08/30 12:04:29;;;;;;;0.10;0.10;;;;;;;;;;5064573;28;20212;-73
2023/08/30 12:06:56;;;;;;;0.00;0.00;;;;;;;;;;5067031;28;20422;-72
2023/08/30 12:09:23;;;;;;;0.00;0.00;;;;;;;;;;5064898;28;20204;-73
2023/08/30 12:11:49;;;;;;;0.00;0.00;;;;;;;;;;5065890;28;20235;-73
2023/08/30 12:14:16;;;;;;;0.00;0.00;;;;;;;;;;5065665;28;20456;-74
2023/08/30 12:16:42;;;;;;;0.00;0.00;;;;;;;;;;5065091;28;20239;-73
2023/08/30 12:19:11;;;;;;;0.00;0.00;;;;;;;;;;5066044;28;20231;-73
2023/08/30 12:21:41;;;;;;;0.00;0.00;;;;;;;;;;5064416;28;20238;-73
2023/08/30 12:24:07;;;;;;;0.00;0.00;;;;;;;;;;5066511;28;20395;-74
2023/08/30 12:26:34;;;;;;;0.10;0.10;;;;;;;;;;5063812;28;20302;-74
2023/08/30 12:29:00;;;;;;;0.00;0.00;;;;;;;;;;5067217;28;20204;-73
2023/08/30 12:31:27;;;;;;;0.00;0.00;;;;;;;;;;5063024;28;20325;-74
2023/08/30 12:33:54;;;;;;;0.00;0.00;;;;;;;;;;5069682;28;20228;-73
2023/08/30 12:36:22;;;;;;;0.00;0.00;;;;;;;;;;5065706;28;20442;-74
2023/08/30 12:38:48;;;;;;;0.00;0.00;;;;;;;;;;5072791;28;20204;-74
2023/08/30 12:41:15;;;;;;;0.00;0.00;;;;;;;;;;5065084;28;20239;-74
2023/08/30 12:43:41;;;;;;;0.00;0.00;;;;;;;;;;5073303;28;20228;-74
2023/08/30 12:46:08;;;;;;;0.00;0.00;;;;;;;;;;5064146;28;20289;-77
2023/08/30 12:48:34;;;;;;;0.47;0.47;;;;;;;;;;5074512;28;20267;-77
2023/08/30 12:51:00;;;;;;;0.08;0.08;;;;;;;;;;5063298;28;20247;-77
2023/08/30 12:53:28;;;;;;;0.00;0.00;;;;;;;;;;5075067;28;20224;-77
2023/08/30 12:55:55;;;;;;;0.00;0.00;;;;;;;;;;5062364;28;20239;-76
2023/08/30 12:58:21;;;;;;;0.00;0.00;;;;;;;;;;5075951;28;20235;-79
2023/08/30 13:00:47;;;;;;;0.10;0.10;;;;;;;;;;5061173;28;20306;-77
2023/08/30 13:03:14;;;;;;;0.00;0.00;;;;;;;;;;5076491;28;20200;-76
2023/08/30 13:05:40;;;;;;;0.00;0.00;;;;;;;;;;5060271;28;20314;-76
2023/08/30 13:08:06;;;;;;;0.00;0.00;;;;;;;;;;5077660;28;20326;-77
2023/08/30 13:10:34;;;;;;;0.00;0.00;;;;;;;;;;5059106;28;20312;-77
2023/08/30 13:13:00;;;;;;;0.00;0.00;;;;;;;;;;5078100;28;20217;-77
2023/08/30 13:15:27;;;;;;;0.00;0.00;;;;;;;;;;5058407;28;20203;-77
2023/08/30 13:17:53;;;;;;;0.00;0.00;;;;;;;;;;5079230;28;20192;-77
2023/08/30 13:20:20;;;;;;;0.00;0.00;;;;;;;;;;5057379;28;20275;-76
2023/08/30 13:22:46;;;;;;;0.00;0.00;;;;;;;;;;5080067;28;20291;-77
2023/08/30 13:25:12;;;;;;;0.00;0.00;;;;;;;;;;5056093;28;20204;-77
2023/08/30 13:27:40;;;;;;;0.00;0.00;;;;;;;;;;5080934;28;20259;-77
2023/08/30 13:30:07;;;;;;;0.00;0.00;;;;;;;;;;5066038;28;20463;-77
2023/08/30 13:32:35;;;;;;;0.00;0.00;;;;;;;;;;5034654;28;20232;-78
2023/08/30 13:35:01;;;;;;;0.00;0.00;;;;;;;;;;5045768;28;20449;-77
2023/08/30 13:37:28;;;;;;;0.10;0.10;;;;;;;;;;5070249;28;20247;-77
2023/08/30 13:39:54;;;;;;;0.00;0.00;;;;;;;;;;5065538;28;20204;-78
2023/08/30 13:42:21;;;;;;;0.00;0.00;;;;;;;;;;5069160;28;20247;-78
2023/08/30 13:44:53;;;;;;;0.10;0.10;;;;;;;;;;5044718;28;20209;-79
2023/08/30 13:47:20;;;;;;;0.00;0.00;;;;;;;;;;5067263;28;20250;-78
2023/08/30 13:49:46;;;;;;;0.10;0.10;;;;;;;;;;5045469;28;20247;-78
2023/08/30 13:52:13;;;;;;;0.03;0.03;;;;;;;;;;5067238;28;20239;-78
2023/08/30 13:54:39;;;;;;;0.10;0.10;;;;;;;;;;5045123;28;20225;-78
2023/08/30 13:57:06;;;;;;;0.03;0.03;;;;;;;;;;5066663;28;20239;-78
2023/08/30 13:59:32;;;;;;;0.10;0.10;;;;;;;;;;5045464;28;20197;-78
2023/08/30 14:02:00;;;;;;;0.03;0.03;;;;;;;;;;5064758;28;20603;-78
2023/08/30 14:04:28;;;;;;;0.00;0.00;;;;;;;;;;5047151;28;20392;-78
2023/08/30 14:06:55;;;;;;;0.08;0.08;;;;;;;;;;5063595;28;20571;-78
2023/08/30 14:09:21;;;;;;;0.08;0.08;;;;;;;;;;5048319;28;20204;-78
2023/08/30 14:11:48;;;;;;;0.00;0.00;;;;;;;;;;5061596;28;20254;-78
2023/08/30 14:14:14;;;;;;;0.00;0.00;;;;;;;;;;5050212;28;20224;-78
2023/08/30 14:16:40;;;;;;;0.05;0.05;;;;;;;;;;5059376;28;20250;-78
2023/08/30 14:19:08;;;;;;;0.10;0.10;;;;;;;;;;5051724;28;20205;-78
2023/08/30 14:21:34;;;;;;;0.10;0.10;;;;;;;;;;5057696;28;20261;-79
2023/08/30 14:24:01;;;;;;;0.08;0.08;;;;;;;;;;5053548;28;20451;-78
2023/08/30 14:26:28;;;;;;;0.00;0.00;;;;;;;;;;5056112;28;20255;-78
2023/08/30 14:28:55;;;;;;;0.10;0.10;;;;;;;;;;5055019;28;20271;-78
2023/08/30 14:31:21;;;;;;;0.00;0.00;;;;;;;;;;5054039;28;20262;-78
2023/08/30 14:33:48;;;;;;;0.00;0.00;;;;;;;;;;5056970;28;20552;-78
2023/08/30 14:36:16;;;;;;;0.00;0.00;;;;;;;;;;5052055;28;20239;-79
2023/08/30 14:38:42;;;;;;;0.00;0.00;;;;;;;;;;5058335;28;20485;-78
2023/08/30 14:41:09;;;;;;;0.00;0.00;;;;;;;;;;5050545;28;20239;-79